createdAt,value
2022-09-01T00:00:22.792Z,7.90
2022-09-01T00:05:38.083Z,7.40
2022-09-01T00:10:42.147Z,8.00
2022-09-01T00:15:45.270Z,6.70
2022-09-01T00:20:48.352Z,7.20
2022-09-01T00:25:51.373Z,6.20
2022-09-01T00:30:54.503Z,6.60
2022-09-01T00:35:58.501Z,7.20
2022-09-01T00:41:02.223Z,8.30
2022-09-01T00:46:13.533Z,9.00
2022-09-01T00:51:21.835Z,7.70
2022-09-01T00:56:25.164Z,6.30
2022-09-01T01:06:33.442Z,5.90
2022-09-01T01:11:37.043Z,7.10
2022-09-01T01:16:44.816Z,9.40
2022-09-01T01:22:06.619Z,8.50
2022-09-01T01:27:09.704Z,8.00
2022-09-01T01:32:13.341Z,6.80
2022-09-01T01:37:17.044Z,7.20
2022-09-01T01:42:20.271Z,8.00
2022-09-01T01:47:23.327Z,7.90
2022-09-01T01:52:27.279Z,7.10
2022-09-01T01:57:33.176Z,7.20
2022-09-01T02:02:38.242Z,7.10
2022-09-01T02:07:43.075Z,8.20
2022-09-01T02:12:46.568Z,8.50
2022-09-01T02:22:55.551Z,7.40
2022-09-01T02:28:00.696Z,9.70
2022-09-01T02:33:05.159Z,7.30
2022-09-01T02:38:08.961Z,7.00
2022-09-01T02:43:12.459Z,8.10
2022-09-01T02:48:16.473Z,7.00
2022-09-01T02:53:22.578Z,6.70
2022-09-01T02:58:34.353Z,8.90
2022-09-01T03:03:38.205Z,6.00
2022-09-01T03:08:41.221Z,6.60
2022-09-01T03:13:44.290Z,9.10
2022-09-01T03:18:47.623Z,7.60
2022-09-01T03:23:52.837Z,7.10
2022-09-01T03:28:57.106Z,7.70
2022-09-01T03:34:01.438Z,6.90
2022-09-01T03:39:05.018Z,7.10
2022-09-01T03:44:12.303Z,8.20
2022-09-01T03:49:15.798Z,9.20
2022-09-01T03:54:18.999Z,7.20
2022-09-01T03:59:22.728Z,8.30
2022-09-01T04:04:26.674Z,9.80
2022-09-01T04:09:29.708Z,8.10
2022-09-01T04:14:33.142Z,9.50
2022-09-01T04:19:39.720Z,8.30
2022-09-01T04:24:46.265Z,7.20
2022-09-01T04:29:50.361Z,11.00
2022-09-01T04:34:53.396Z,9.50
2022-09-01T04:39:57.922Z,8.20
2022-09-01T04:45:01.971Z,7.10
2022-09-01T04:50:16.410Z,6.70
2022-09-01T04:55:19.689Z,8.20
2022-09-01T05:05:27.469Z,6.30
2022-09-01T05:10:31.742Z,6.80
2022-09-01T05:15:35.739Z,7.50
2022-09-01T05:20:43.432Z,7.50
2022-09-01T05:25:51.343Z,5.90
2022-09-01T05:30:54.879Z,6.90
2022-09-01T05:36:02.195Z,6.60
2022-09-01T05:41:08.772Z,6.60
2022-09-01T05:46:12.727Z,4.70
2022-09-01T05:51:43.141Z,4.30
2022-09-01T05:56:48.169Z,5.90
2022-09-01T06:01:53.132Z,5.30
2022-09-01T06:07:06.436Z,4.60
2022-09-01T06:12:18.433Z,5.90
2022-09-01T06:17:26.511Z,7.00
2022-09-01T06:22:29.732Z,6.20
2022-09-01T06:32:38.755Z,5.30
2022-09-01T06:37:46.213Z,5.90
2022-09-01T06:42:52.633Z,7.90
2022-09-01T06:47:57.682Z,4.60
2022-09-01T06:58:33.872Z,4.30
2022-09-01T07:03:37.405Z,3.70
2022-09-01T07:14:21.782Z,5.70
2022-09-01T07:19:48.391Z,2.90
2022-09-01T07:25:11.531Z,3.90
2022-09-01T07:30:12.958Z,5.50
2022-09-01T07:35:22.619Z,6.50
2022-09-01T07:45:58.906Z,4.80
2022-09-01T07:56:25.834Z,5.20
2022-09-01T08:01:28.950Z,3.30
2022-09-01T08:06:39.308Z,6.00
2022-09-01T08:12:01.822Z,2.30
2022-09-01T08:22:29.022Z,3.70
2022-09-01T08:27:36.530Z,3.60
2022-09-01T08:32:44.189Z,3.80
2022-09-01T08:37:47.216Z,2.90
2022-09-01T08:43:19.930Z,2.50
2022-09-01T08:54:32.064Z,3.20
2022-09-01T09:04:56.988Z,1.90
2022-09-01T09:10:51.162Z,2.60
2022-09-01T09:16:08.719Z,2.60
2022-09-01T09:21:42.738Z,1.10
2022-09-01T09:26:55.237Z,3.90
2022-09-01T09:32:39.529Z,1.80
2022-09-01T09:37:32.626Z,1.50
2022-09-01T09:42:40.038Z,2.70
2022-09-01T09:47:46.803Z,2.00
2022-09-01T09:52:52.471Z,2.40
2022-09-01T09:58:02.043Z,1.70
2022-09-01T10:03:13.644Z,2.60
2022-09-01T10:08:37.237Z,2.80
2022-09-01T10:13:40.603Z,2.70
2022-09-01T10:18:46.762Z,2.70
2022-09-01T10:23:49.894Z,4.60
2022-09-01T10:34:19.887Z,2.60
2022-09-01T10:39:28.704Z,3.50
2022-09-01T10:44:58.309Z,3.50
2022-09-01T10:50:21.039Z,3.10
2022-09-01T11:00:36.923Z,3.80
2022-09-01T11:06:12.014Z,5.10
2022-09-01T11:11:51.768Z,3.70
2022-09-01T11:17:29.202Z,2.80
2022-09-01T11:22:33.978Z,4.90
2022-09-01T11:27:49.176Z,2.80
2022-09-01T11:33:00.331Z,1.40
2022-09-01T11:38:08.022Z,1.60
2022-09-01T11:43:16.879Z,4.60
2022-09-01T11:48:22.746Z,5.20
2022-09-01T11:53:27.383Z,3.20
2022-09-01T11:58:39.503Z,7.60
2022-09-01T12:03:44.261Z,2.10
2022-09-01T12:09:05.432Z,2.90
2022-09-01T12:14:12.423Z,3.90
2022-09-01T12:19:30.138Z,4.80
2022-09-01T12:24:37.164Z,5.20
2022-09-01T12:29:40.903Z,1.70
2022-09-01T12:35:01.513Z,1.20
2022-09-01T12:40:05.747Z,2.80
2022-09-01T12:45:11.356Z,3.70
2022-09-01T12:50:16.472Z,5.30
2022-09-01T13:01:12.258Z,1.50
2022-09-01T13:06:20.191Z,1.80
2022-09-01T13:16:26.049Z,1.50
2022-09-01T13:21:30.544Z,5.80
2022-09-01T13:26:34.017Z,1.40
2022-09-01T13:31:37.423Z,0.80
2022-09-01T13:36:45.469Z,3.40
2022-09-01T13:41:49.920Z,2.50
2022-09-01T13:47:00.876Z,1.10
2022-09-01T13:52:16.203Z,3.00
2022-09-01T13:57:19.254Z,1.50
2022-09-01T14:07:25.070Z,3.10
2022-09-01T14:12:28.744Z,4.00
2022-09-01T14:17:32.062Z,4.40
2022-09-01T14:22:38.499Z,5.90
2022-09-01T14:27:44.648Z,3.70
2022-09-01T14:32:48.145Z,3.70
2022-09-01T14:37:53.571Z,14.00
2022-09-01T14:42:57.552Z,5.80
2022-09-01T14:53:04.488Z,1.90
2022-09-01T15:03:10.581Z,4.60
2022-09-01T15:13:21.169Z,2.60
2022-09-01T15:18:24.347Z,3.10
2022-09-01T15:28:30.252Z,10.80
2022-09-01T15:38:36.157Z,1.60
2022-09-01T15:48:46.145Z,4.00
2022-09-01T15:53:55.579Z,3.40
2022-09-01T15:59:01.612Z,11.00
2022-09-01T16:04:07.774Z,8.10
2022-09-01T16:09:12.692Z,9.90
2022-09-01T16:14:16.270Z,17.50
2022-09-01T16:19:40.239Z,6.70
2022-09-01T16:24:48.383Z,9.90
2022-09-01T16:30:22.659Z,4.80
2022-09-01T16:35:57.601Z,8.10
2022-09-01T16:41:31.444Z,11.20
2022-09-01T16:46:46.280Z,7.90
2022-09-01T16:52:06.913Z,2.40
2022-09-01T16:57:49.124Z,5.50
2022-09-01T17:08:23.591Z,5.90
2022-09-01T17:13:38.483Z,7.40
2022-09-01T17:18:58.000Z,6.60
2022-09-01T17:24:19.310Z,11.70
2022-09-01T17:29:51.994Z,13.60
2022-09-01T17:35:30.046Z,16.40
2022-09-01T17:41:13.622Z,20.90
2022-09-01T17:46:44.404Z,20.30
2022-09-01T17:52:26.544Z,15.70
2022-09-01T17:57:51.063Z,12.90
2022-09-01T18:03:26.332Z,16.90
2022-09-01T18:08:38.290Z,21.40
2022-09-01T18:14:03.883Z,21.70
2022-09-01T18:19:19.446Z,16.20
2022-09-01T18:24:43.539Z,13.70
2022-09-01T18:29:46.910Z,13.20
2022-09-01T18:35:28.292Z,15.20
2022-09-01T18:41:12.698Z,15.30
2022-09-01T18:47:03.554Z,10.90
2022-09-01T18:52:36.538Z,12.10
2022-09-01T18:57:41.862Z,10.70
2022-09-01T19:03:00.002Z,12.90
2022-09-01T19:08:12.029Z,11.60
2022-09-01T19:14:03.505Z,9.90
2022-09-01T19:19:28.338Z,10.80
2022-09-01T19:24:47.860Z,10.40
2022-09-01T19:30:02.248Z,12.60
2022-09-01T19:35:14.417Z,13.40
2022-09-01T19:40:32.072Z,10.60
2022-09-01T19:45:56.876Z,10.90
2022-09-01T19:51:15.371Z,11.50
2022-09-01T19:56:32.938Z,12.80
2022-09-01T20:01:59.627Z,13.20
2022-09-01T20:07:02.992Z,15.80
2022-09-01T20:17:55.690Z,13.90
2022-09-01T20:23:32.912Z,15.10
2022-09-01T20:28:47.817Z,15.10
2022-09-01T20:34:15.302Z,15.40
2022-09-01T20:40:04.918Z,17.30
2022-09-01T20:45:19.997Z,16.10
2022-09-01T20:51:01.591Z,20.90
2022-09-01T20:56:47.816Z,17.70
2022-09-01T21:02:40.458Z,15.80
2022-09-01T21:07:52.293Z,16.10
2022-09-01T21:13:30.771Z,17.40
2022-09-01T21:19:07.822Z,16.30
2022-09-01T21:24:10.871Z,16.50
2022-09-01T21:29:52.524Z,16.20
2022-09-01T21:34:56.475Z,15.80
2022-09-01T21:39:59.987Z,13.90
2022-09-01T21:45:06.553Z,13.60
2022-09-01T21:50:10.581Z,15.50
2022-09-01T21:55:14.731Z,11.20
2022-09-01T22:00:31.838Z,10.30
2022-09-01T22:05:36.013Z,11.00
2022-09-01T22:10:49.816Z,11.80
2022-09-01T22:15:54.566Z,12.00
2022-09-01T22:21:10.070Z,10.70
2022-09-01T22:26:30.441Z,15.30
2022-09-01T22:31:37.471Z,10.80
2022-09-01T22:36:46.412Z,10.70
2022-09-01T22:41:49.418Z,10.80
2022-09-01T22:46:52.495Z,10.10
2022-09-01T22:51:55.518Z,13.50
2022-09-01T23:02:02.867Z,11.10
2022-09-01T23:07:07.310Z,9.50
2022-09-01T23:12:10.297Z,10.10
2022-09-01T23:17:13.324Z,11.10
2022-09-01T23:22:17.113Z,9.60
2022-09-01T23:27:20.193Z,7.80
2022-09-01T23:32:23.210Z,9.40
2022-09-01T23:37:27.525Z,11.00
2022-09-01T23:42:30.496Z,11.80
2022-09-01T23:47:35.735Z,9.00
2022-09-01T23:52:39.557Z,9.50
2022-09-01T23:57:42.598Z,9.40
